Ava, Illinois
Current Conditions -  °F | °C
As of 5:52 AM on Saturday 01 Nov 2014 (Local Time) from KMDH Reporting Station
Clear Clear  
Wind Chill: 22°   Ceiling: Unl
Heat Index: 30°   Visibility: 10mi
Dew Point: 22°   Wind: 9mph
Humidity: 72%   Direction: 320°NW
Pressure: 30.39"   Gusts: NA
Location:  37.89°N, 89.49°W
Report Text: KMDH 011052Z AUTO 32008KT 10SM CLR M01/M06 A3039 RMK AO2 SLP292 T10111056 TSNO $
Loading
Personal Weather Stations






























Interactive Weather Map
Tropical Storm Tracking
New forecast layout! Learn more

10-Day Weather Forecast

Advertisements
Track Severe Weather on mobile